Time,TemperatureF,DewpointF,PressureIn,WindDirection,WindDirectionDegrees,WindSpeedMPH,WindSpeedGustMPH,Humidity,HourlyPrecipIn,Conditions,Clouds,dailyrainin,SoftwareType,DateUTC
2013-01-07 00:02:00,19.0,16.0,-100.00,South,175,12.0,16.0,88,0.00,,,-99.99,,2013-01-07 06:02:00,
2013-01-07 00:12:00,19.0,16.0,-100.00,South,170,15.0,16.0,88,0.00,,,-99.99,,2013-01-07 06:12:00,
2013-01-07 00:22:00,19.0,17.0,-100.00,SSE,165,15.0,17.0,88,0.00,,,-99.99,,2013-01-07 06:22:00,
2013-01-07 00:32:00,20.0,17.0,-100.00,South,170,14.0,17.0,88,0.00,,,-99.99,,2013-01-07 06:32:00,
2013-01-07 00:42:00,19.0,16.0,-100.00,South,170,15.0,17.0,88,0.00,,,-99.99,,2013-01-07 06:42:00,
2013-01-07 00:52:00,21.0,18.0,-100.00,South,185,14.0,17.0,88,0.00,,,-99.99,,2013-01-07 06:52:00,
2013-01-07 01:02:00,22.0,19.0,-100.00,South,185,14.0,19.0,88,0.00,,,-99.99,,2013-01-07 07:02:00,
2013-01-07 01:12:00,23.0,20.0,-100.00,South,180,13.0,17.0,86,0.00,,,-99.99,,2013-01-07 07:12:00,
2013-01-07 01:22:00,21.0,18.0,-100.00,South,180,10.0,14.0,86,0.00,,,-99.99,,2013-01-07 07:22:00,
2013-01-07 01:33:00,25.0,21.0,-100.00,SSW,195,17.0,19.0,85,0.00,,,-99.99,,2013-01-07 07:33:00,
2013-01-07 01:42:00,25.0,21.0,-100.00,South,185,14.0,18.0,82,0.00,,,-99.99,,2013-01-07 07:42:00,
2013-01-07 01:52:00,27.0,21.0,-100.00,South,190,20.0,24.0,79,0.00,,,-99.99,,2013-01-07 07:52:00,
2013-01-07 02:03:00,27.0,21.0,-100.00,South,190,20.0,24.0,79,0.00,,,-99.99,,2013-01-07 08:03:00,
2013-01-07 02:12:00,27.0,21.0,-100.00,South,190,20.0,24.0,79,0.00,,,-99.99,,2013-01-07 08:12:00,
2013-01-07 02:22:00,27.0,21.0,-100.00,South,190,27.0,32.0,78,0.00,,,-99.99,,2013-01-07 08:22:00,
2013-01-07 02:32:00,27.0,21.0,-100.00,SSW,195,27.0,34.0,78,0.00,,,-99.99,,2013-01-07 08:32:00,
2013-01-07 02:42:00,27.0,21.0,-100.00,SSW,195,29.0,35.0,78,0.00,,,-99.99,,2013-01-07 08:42:00,
2013-01-07 02:53:00,28.0,22.0,-100.00,SSW,200,30.0,39.0,78,0.00,,,-99.99,,2013-01-07 08:53:00,
2013-01-07 03:02:00,28.0,22.0,-100.00,SSW,200,30.0,39.0,78,0.00,,,-99.99,,2013-01-07 09:02:00,
2013-01-07 03:12:00,28.0,22.0,-100.00,SSW,205,28.0,36.0,78,0.00,,,-99.99,,2013-01-07 09:12:00,
2013-01-07 03:22:00,28.0,22.0,-100.00,SSW,205,26.0,34.0,78,0.00,,,-99.99,,2013-01-07 09:22:00,
2013-01-07 03:32:00,28.0,22.0,-100.00,SSW,205,26.0,34.0,78,0.00,,,-99.99,,2013-01-07 09:32:00,
2013-01-07 03:42:00,28.0,22.0,-100.00,SSW,210,24.0,31.0,77,0.00,,,-99.99,,2013-01-07 09:42:00,
2013-01-07 03:52:00,29.0,23.0,-100.00,SSW,210,24.0,30.0,76,0.00,,,-99.99,,2013-01-07 09:52:00,
2013-01-07 04:02:00,29.0,23.0,-100.00,SSW,210,24.0,30.0,76,0.00,,,-99.99,,2013-01-07 10:02:00,
2013-01-07 04:12:00,29.0,23.0,-100.00,SSW,210,22.0,30.0,76,0.00,,,-99.99,,2013-01-07 10:12:00,
2013-01-07 04:22:00,30.0,23.0,-100.00,SSW,210,24.0,31.0,75,0.00,,,-99.99,,2013-01-07 10:22:00,
2013-01-07 04:32:00,30.0,23.0,-100.00,SW,215,21.0,29.0,75,0.00,,,-99.99,,2013-01-07 10:32:00,
2013-01-07 04:42:00,30.0,23.0,-100.00,SSW,210,23.0,29.0,75,0.00,,,-99.99,,2013-01-07 10:42:00,
2013-01-07 04:52:00,31.0,23.0,-100.00,SSW,210,29.0,35.0,72,0.00,,,-99.99,,2013-01-07 10:52:00,
2013-01-07 05:02:00,31.0,23.0,-100.00,SSW,210,29.0,35.0,72,0.00,,,-99.99,,2013-01-07 11:02:00,
2013-01-07 05:12:00,30.0,22.0,-100.00,SW,215,24.0,34.0,72,0.00,,,-99.99,,2013-01-07 11:12:00,
2013-01-07 05:22:00,30.0,22.0,-100.00,SSW,210,28.0,35.0,72,0.00,,,-99.99,,2013-01-07 11:22:00,
2013-01-07 05:32:00,30.0,22.0,-100.00,SW,215,28.0,35.0,72,0.00,,,-99.99,,2013-01-07 11:32:00,
2013-01-07 05:43:00,29.0,22.0,-100.00,SSW,210,24.0,32.0,73,0.00,,,-99.99,,2013-01-07 11:43:00,
2013-01-07 05:52:00,28.0,21.0,-100.00,SSW,210,22.0,27.0,73,0.00,,,-99.99,,2013-01-07 11:52:00,
2013-01-07 06:03:00,28.0,21.0,-100.00,SSW,210,22.0,27.0,73,0.00,,,-99.99,,2013-01-07 12:03:00,
2013-01-07 06:12:00,28.0,21.0,-100.00,SSW,210,18.0,26.0,74,0.00,,,-99.99,,2013-01-07 12:12:00,
2013-01-07 06:22:00,28.0,21.0,-100.00,SSW,210,18.0,26.0,74,0.00,,,-99.99,,2013-01-07 12:22:00,
2013-01-07 06:33:00,27.0,20.0,-100.00,SW,215,12.0,18.0,76,0.00,,,-99.99,,2013-01-07 12:33:00,
2013-01-07 06:43:00,27.0,20.0,-100.00,SW,215,11.0,15.0,76,0.00,,,-99.99,,2013-01-07 12:43:00,
2013-01-07 06:52:00,26.0,20.0,-100.00,SW,215,9.0,12.0,77,0.00,,,-99.99,,2013-01-07 12:52:00,
2013-01-07 07:02:00,26.0,20.0,-100.00,SW,215,9.0,12.0,77,0.00,,,-99.99,,2013-01-07 13:02:00,
2013-01-07 07:12:00,25.0,19.0,-100.00,SW,220,10.0,11.0,77,0.00,,,-99.99,,2013-01-07 13:12:00,
2013-01-07 07:23:00,25.0,19.0,-100.00,SW,225,11.0,13.0,78,0.00,,,-99.99,,2013-01-07 13:23:00,
2013-01-07 07:33:00,25.0,19.0,-100.00,SW,230,9.0,13.0,79,0.00,,,-99.99,,2013-01-07 13:33:00,
2013-01-07 07:42:00,24.0,19.0,-100.00,SW,235,6.0,9.0,79,0.00,,,-99.99,,2013-01-07 13:42:00,
2013-01-07 07:52:00,24.0,19.0,-100.00,SSW,205,6.0,8.0,81,0.00,,,-99.99,,2013-01-07 13:52:00,
2013-01-07 08:03:00,24.0,19.0,-100.00,SSW,205,6.0,8.0,81,0.00,,,-99.99,,2013-01-07 14:03:00,
2013-01-07 08:12:00,25.0,20.0,-100.00,SSW,200,8.0,11.0,81,0.00,,,-99.99,,2013-01-07 14:12:00,
2013-01-07 08:22:00,26.0,21.0,-100.00,SW,220,12.0,13.0,81,0.00,,,-99.99,,2013-01-07 14:22:00,
2013-01-07 08:33:00,27.0,22.0,-100.00,SW,235,15.0,18.0,81,0.00,,,-99.99,,2013-01-07 14:33:00,
2013-01-07 08:42:00,29.0,23.0,-100.00,SW,235,14.0,17.0,80,0.00,,,-99.99,,2013-01-07 14:42:00,
2013-01-07 08:53:00,30.0,24.0,-100.00,WSW,245,17.0,21.0,77,0.00,,,-99.99,,2013-01-07 14:53:00,
2013-01-07 09:03:00,30.0,24.0,-100.00,WSW,245,17.0,21.0,77,0.00,,,-99.99,,2013-01-07 15:03:00,
2013-01-07 09:12:00,30.0,24.0,-100.00,SW,235,17.0,21.0,77,0.00,,,-99.99,,2013-01-07 15:12:00,
2013-01-07 09:22:00,30.0,24.0,-100.00,WSW,240,14.0,17.0,77,0.00,,,-99.99,,2013-01-07 15:22:00,
2013-01-07 09:33:00,30.0,24.0,-100.00,SW,230,13.0,17.0,77,0.00,,,-99.99,,2013-01-07 15:33:00,
2013-01-07 09:42:00,30.0,24.0,-100.00,WSW,245,12.0,14.0,77,0.00,,,-99.99,,2013-01-07 15:42:00,
2013-01-07 09:53:00,31.0,24.0,-100.00,SW,230,15.0,20.0,77,0.00,,,-99.99,,2013-01-07 15:53:00,
2013-01-07 10:02:00,31.0,24.0,-100.00,SW,230,15.0,20.0,77,0.00,,,-99.99,,2013-01-07 16:02:00,
2013-01-07 10:12:00,31.0,24.0,-100.00,SW,230,15.0,20.0,77,0.00,,,-99.99,,2013-01-07 16:12:00,
2013-01-07 10:22:00,31.0,25.0,-100.00,WSW,250,13.0,18.0,75,0.00,,,-99.99,,2013-01-07 16:22:00,
2013-01-07 10:33:00,31.0,25.0,-100.00,WSW,245,12.0,16.0,75,0.00,,,-99.99,,2013-01-07 16:33:00,
2013-01-07 10:43:00,31.0,24.0,-100.00,WSW,255,14.0,17.0,75,0.00,,,-99.99,,2013-01-07 16:43:00,
2013-01-07 10:53:00,32.0,25.0,-100.00,WSW,250,12.0,17.0,75,0.00,,,-99.99,,2013-01-07 16:53:00,
2013-01-07 11:02:00,32.0,25.0,-100.00,WSW,250,12.0,17.0,75,0.00,,,-99.99,,2013-01-07 17:02:00,
2013-01-07 11:12:00,33.0,26.0,-100.00,SW,235,15.0,18.0,75,0.00,,,-99.99,,2013-01-07 17:12:00,
2013-01-07 11:23:00,33.0,26.0,-100.00,WSW,250,14.0,17.0,73,0.00,,,-99.99,,2013-01-07 17:23:00,
2013-01-07 11:33:00,33.0,25.0,-100.00,West,260,12.0,16.0,73,0.00,,,-99.99,,2013-01-07 17:33:00,
2013-01-07 11:42:00,32.0,25.0,-100.00,West,260,14.0,18.0,74,0.00,,,-99.99,,2013-01-07 17:42:00,
2013-01-07 11:53:00,32.0,25.0,-100.00,WSW,255,10.0,16.0,76,0.00,,,-99.99,,2013-01-07 17:53:00,
2013-01-07 12:03:00,32.0,25.0,-100.00,WSW,255,10.0,16.0,76,0.00,,,-99.99,,2013-01-07 18:03:00,
2013-01-07 12:12:00,32.0,26.0,-100.00,West,280,11.0,13.0,76,0.00,,,-99.99,,2013-01-07 18:12:00,
2013-01-07 12:23:00,32.0,26.0,-100.00,West,280,11.0,13.0,76,0.00,,,-99.99,,2013-01-07 18:23:00,
2013-01-07 12:32:00,32.0,26.0,-100.00,West,275,12.0,15.0,76,0.00,,,-99.99,,2013-01-07 18:32:00,
2013-01-07 12:42:00,32.0,26.0,-100.00,West,265,12.0,16.0,76,0.00,,,-99.99,,2013-01-07 18:42:00,
2013-01-07 12:52:00,32.0,26.0,-100.00,WSW,255,12.0,14.0,76,0.00,,,-99.99,,2013-01-07 18:52:00,
2013-01-07 13:03:00,32.0,26.0,-100.00,WSW,255,12.0,14.0,76,0.00,,,-99.99,,2013-01-07 19:03:00,
2013-01-07 13:12:00,33.0,26.0,-100.00,WSW,250,11.0,13.0,76,0.00,,,-99.99,,2013-01-07 19:12:00,
2013-01-07 13:22:00,33.0,27.0,-100.00,WSW,240,10.0,12.0,76,0.00,,,-99.99,,2013-01-07 19:22:00,
2013-01-07 13:33:00,33.0,27.0,-100.00,WSW,250,7.0,11.0,75,0.00,,,-99.99,,2013-01-07 19:33:00,
2013-01-07 13:42:00,34.0,27.0,-100.00,WSW,255,7.0,11.0,75,0.00,,,-99.99,,2013-01-07 19:42:00,
2013-01-07 13:52:00,33.0,26.0,-100.00,WSW,255,9.0,12.0,75,0.00,,,-99.99,,2013-01-07 19:52:00,
2013-01-07 14:03:00,33.0,26.0,-100.00,WSW,255,9.0,12.0,75,0.00,,,-99.99,,2013-01-07 20:03:00,
2013-01-07 14:12:00,33.0,26.0,-100.00,WSW,255,9.0,11.0,76,0.00,,,-99.99,,2013-01-07 20:12:00,
2013-01-07 14:23:00,33.0,26.0,-100.00,WSW,255,9.0,11.0,76,0.00,,,-99.99,,2013-01-07 20:23:00,
2013-01-07 14:33:00,33.0,27.0,-100.00,WSW,245,7.0,10.0,76,0.00,,,-99.99,,2013-01-07 20:33:00,
2013-01-07 14:42:00,33.0,27.0,-100.00,WSW,250,7.0,9.0,76,0.00,,,-99.99,,2013-01-07 20:42:00,
2013-01-07 14:52:00,33.0,26.0,-100.00,West,260,10.0,11.0,77,0.00,,,-99.99,,2013-01-07 20:52:00,
2013-01-07 15:03:00,33.0,26.0,-100.00,West,260,10.0,11.0,77,0.00,,,-99.99,,2013-01-07 21:03:00,
2013-01-07 15:12:00,33.0,27.0,-100.00,WSW,255,9.0,10.0,78,0.00,,,-99.99,,2013-01-07 21:12:00,
2013-01-07 15:22:00,33.0,27.0,-100.00,West,265,7.0,10.0,78,0.00,,,-99.99,,2013-01-07 21:22:00,
2013-01-07 15:33:00,33.0,27.0,-100.00,WSW,250,7.0,9.0,78,0.00,,,-99.99,,2013-01-07 21:33:00,
2013-01-07 15:42:00,33.0,27.0,-100.00,WSW,250,7.0,9.0,78,0.00,,,-99.99,,2013-01-07 21:42:00,
2013-01-07 15:52:00,32.0,26.0,-100.00,WSW,245,6.0,9.0,78,0.00,,,-99.99,,2013-01-07 21:52:00,
2013-01-07 16:02:00,32.0,26.0,-100.00,WSW,245,6.0,9.0,78,0.00,,,-99.99,,2013-01-07 22:02:00,
2013-01-07 16:12:00,32.0,26.0,-100.00,WSW,255,7.0,9.0,78,0.00,,,-99.99,,2013-01-07 22:12:00,
2013-01-07 16:22:00,31.0,26.0,-100.00,WSW,255,6.0,8.0,78,0.00,,,-99.99,,2013-01-07 22:22:00,
2013-01-07 16:33:00,31.0,25.0,-100.00,West,260,6.0,7.0,78,0.00,,,-99.99,,2013-01-07 22:33:00,
2013-01-07 16:42:00,30.0,25.0,-100.00,West,260,6.0,6.0,79,0.00,,,-99.99,,2013-01-07 22:42:00,
2013-01-07 16:52:00,29.0,23.0,-100.00,West,260,6.0,6.0,80,0.00,,,-99.99,,2013-01-07 22:52:00,
2013-01-07 17:02:00,29.0,23.0,-100.00,West,260,6.0,6.0,80,0.00,,,-99.99,,2013-01-07 23:02:00,
2013-01-07 17:12:00,27.0,22.0,-100.00,WSW,240,4.0,5.0,81,0.00,,,-99.99,,2013-01-07 23:12:00,
2013-01-07 17:22:00,27.0,22.0,-100.00,WSW,250,2.0,4.0,82,0.00,,,-99.99,,2013-01-07 23:22:00,
2013-01-07 17:33:00,26.0,22.0,-100.00,WSW,245,2.0,3.0,83,0.00,,,-99.99,,2013-01-07 23:33:00,
2013-01-07 17:42:00,25.0,21.0,-100.00,West,275,2.0,4.0,84,0.00,,,-99.99,,2013-01-07 23:42:00,
2013-01-07 17:52:00,26.0,22.0,-100.00,WNW,290,4.0,4.0,86,0.00,,,-99.99,,2013-01-07 23:52:00,
2013-01-07 18:02:00,26.0,22.0,-100.00,WNW,290,4.0,4.0,86,0.00,,,-99.99,,2013-01-08 00:02:00,
2013-01-07 18:12:00,25.0,22.0,-100.00,NW,305,4.0,5.0,87,0.00,,,-99.99,,2013-01-08 00:12:00,
2013-01-07 18:22:00,24.0,21.0,-100.00,WNW,295,4.0,5.0,87,0.00,,,-99.99,,2013-01-08 00:22:00,
2013-01-07 18:33:00,23.0,20.0,-100.00,WSW,255,3.0,4.0,88,0.00,,,-99.99,,2013-01-08 00:33:00,
2013-01-07 18:42:00,23.0,20.0,-100.00,WSW,255,3.0,4.0,88,0.00,,,-99.99,,2013-01-08 00:42:00,
2013-01-07 18:52:00,22.0,20.0,-100.00,NW,310,4.0,6.0,90,0.00,,,-99.99,,2013-01-08 00:52:00,
2013-01-07 19:02:00,22.0,20.0,-100.00,NW,310,4.0,6.0,90,0.00,,,-99.99,,2013-01-08 01:02:00,
2013-01-07 19:12:00,21.0,19.0,-100.00,WNW,295,4.0,6.0,90,0.00,,,-99.99,,2013-01-08 01:12:00,
2013-01-07 19:22:00,20.0,18.0,-100.00,WSW,240,0.0,4.0,90,0.00,,,-99.99,,2013-01-08 01:22:00,
2013-01-07 19:33:00,21.0,18.0,-100.00,SW,230,1.0,2.0,91,0.00,,,-99.99,,2013-01-08 01:33:00,
2013-01-07 19:42:00,21.0,19.0,-100.00,West,270,1.0,1.0,91,0.00,,,-99.99,,2013-01-08 01:42:00,
2013-01-07 19:52:00,18.0,16.0,-100.00,SW,230,2.0,4.0,91,0.00,,,-99.99,,2013-01-08 01:52:00,
2013-01-07 20:02:00,18.0,16.0,-100.00,SW,230,2.0,4.0,91,0.00,,,-99.99,,2013-01-08 02:02:00,
2013-01-07 20:12:00,17.0,15.0,-100.00,South,180,4.0,5.0,91,0.00,,,-99.99,,2013-01-08 02:12:00,
2013-01-07 20:22:00,19.0,17.0,-100.00,SW,215,6.0,6.0,92,0.00,,,-99.99,,2013-01-08 02:22:00,
2013-01-07 20:32:00,19.0,17.0,-100.00,SW,230,2.0,6.0,92,0.00,,,-99.99,,2013-01-08 02:32:00,
2013-01-07 20:42:00,18.0,16.0,-100.00,NNW,345,4.0,4.0,92,0.00,,,-99.99,,2013-01-08 02:42:00,
2013-01-07 20:53:00,15.0,14.0,-100.00,NNW,335,4.0,4.0,92,0.00,,,-99.99,,2013-01-08 02:53:00,
2013-01-07 21:03:00,14.0,12.0,-100.00,NNW,335,4.0,4.0,92,0.00,,,-99.99,,2013-01-08 03:03:00,
2013-01-07 21:12:00,14.0,12.0,-100.00,NNW,330,4.0,5.0,92,0.00,,,-99.99,,2013-01-08 03:12:00,
2013-01-07 21:22:00,14.0,12.0,-100.00,NNW,330,4.0,4.0,92,0.00,,,-99.99,,2013-01-08 03:22:00,
2013-01-07 21:32:00,14.0,12.0,-100.00,NNW,330,4.0,4.0,92,0.00,,,-99.99,,2013-01-08 03:32:00,
2013-01-07 21:43:00,15.0,13.0,-100.00,NW,320,4.0,4.0,93,0.00,,,-99.99,,2013-01-08 03:43:00,
2013-01-07 21:52:00,15.0,14.0,-100.00,NW,305,1.0,5.0,93,0.00,,,-99.99,,2013-01-08 03:52:00,
2013-01-07 22:02:00,15.0,14.0,-100.00,NW,305,1.0,5.0,93,0.00,,,-99.99,,2013-01-08 04:02:00,
2013-01-07 22:12:00,16.0,14.0,-100.00,WSW,240,2.0,3.0,93,0.00,,,-99.99,,2013-01-08 04:12:00,
2013-01-07 22:22:00,15.0,14.0,-100.00,WSW,240,0.0,2.0,93,0.00,,,-99.99,,2013-01-08 04:22:00,
2013-01-07 22:32:00,15.0,13.0,-100.00,SE,130,2.0,3.0,93,0.00,,,-99.99,,2013-01-08 04:32:00,
2013-01-07 22:42:00,14.0,13.0,-100.00,SSE,155,6.0,7.0,93,0.00,,,-99.99,,2013-01-08 04:42:00,
2013-01-07 22:52:00,16.0,15.0,-100.00,South,170,4.0,7.0,93,0.00,,,-99.99,,2013-01-08 04:52:00,
2013-01-07 23:03:00,16.0,15.0,-100.00,South,170,4.0,7.0,93,0.00,,,-99.99,,2013-01-08 05:03:00,
2013-01-07 23:12:00,13.0,12.0,-100.00,SSW,200,4.0,5.0,93,0.00,,,-99.99,,2013-01-08 05:12:00,
2013-01-07 23:22:00,13.0,11.0,-100.00,SSW,200,6.0,6.0,93,0.00,,,-99.99,,2013-01-08 05:22:00,
2013-01-07 23:33:00,12.0,10.0,-100.00,WSW,240,4.0,4.0,93,0.00,,,-99.99,,2013-01-08 05:33:00,
2013-01-07 23:42:00,12.0,11.0,-100.00,West,270,2.0,4.0,93,0.00,,,-99.99,,2013-01-08 05:42:00,
2013-01-07 23:53:00,12.0,11.0,-100.00,WNW,290,0.0,2.0,93,0.00,,,-99.99,,2013-01-08 05:53:00,